Sainte-Blandine, Canada
Current Conditions -  °F | °C
As of 4:00 AM on Saturday 22 Nov 2014 (Local Time) from CYYY Reporting Station
Broken Clouds Broken Clouds  
Wind Chill:   Ceiling: 1800
Heat Index: 18°   Visibility: 15mi
Dew Point:   Wind: 13mph
Humidity: 68%   Direction: 260°W
Pressure: 30.08"   Gusts: 25mph
Location:  48.35°N, 68.45°W
Report Text: CYYY 220900Z 26011G22KT 15SM BKN018 M08/M13 A3008 RMK SC7 SLP191
Loading
Personal Weather Stations






























Interactive Weather Map New forecast layout! Learn more

10-Day Weather Forecast

Advertisements
Track Severe Weather on mobile